Thessaloniki, Greece

8:56 PM EEST on September 19, 2014 (GMT +0300)
Makedonia | Change Station
CLOSE
Current Station
Airport
Location: Thessaloniki,
Elevation: 13 ft
Nearby Weather Stations

Elev 13 ft 40.52 °N, 22.97 °E | Updated 36 minutes ago

Clear
Clear
70 °F
Feels Like 70 °F
N
6
Wind Variable Wind from SSE

Today
High -- | Low -- °F
--% Chance of Precip.
Yesterday
High -- | Low -- °F
Precip. -- in
7:12 AM 7:30 PM
Waning Crescent, 18% visible
Pressure 30.15 in
Visibility -9999.0 miles
Clouds
Dew Point 59 °F
Humidity 68%
Rainfall 0.00 in
Snow Depth Not available.
UV Not available.
Pollen Not available.
Air Quality Not available.
Flu Activity Not available.
METAR LGTS 191720Z 16005KT CAVOK 21/15 Q1021 NOSIG

More Conditions Fewer Conditions

Pressure 30.15 in
Visibility -9999.0 miles
Clouds
Dew Point 59 °F
Humidity 68%
Rainfall 0.00 in
Snow Depth Not available.
UV Not available.
Pollen Not available.
Air Quality Not available.
Flu Activity Not available.
METAR LGTS 191720Z 16005KT CAVOK 21/15 Q1021 NOSIG

More Conditions Fewer Conditions

10-Day Weather Forecast

Almanac

Astronomy

Sep. 19, 2014 Rise Set
Actual Time 7:12 AM EEST 7:30 PM EEST
Civil Twilight 6:45 AM EEST 7:58 PM EEST
Nautical Twilight 6:13 AM EEST 8:30 PM EEST
Astronomical Twilight 5:40 AM EEST 9:02 PM EEST
Moon 2:40 AM EEST 4:48 PM EEST
Length of Visible Light 13h 12m
Length of Day
12h 18m
Tomorrow will be 2m 39s shorter.
Waning Crescent, 18% of the Moon is Illuminated
Today
Waning Crescent
Sep 24
New
Oct 1
First Quarter
Oct 8
Full
Oct 15
Last Quarter

Today's Extremes

Country Highs Country Lows

Community

WunderPhotos

Upload Photos

1,754,668 photos uploaded!

Nearby

Snow Depth

Not available.

Earthquake Activity

City Distance Mag. Time & Date
No recent earthquake activity has been reported nearby.
Minimum magnitude displayed is 2.5.

Coastal Water Temperatures

Place Temperature
No Stations Reporting

Nearby Weather Stations